Flight Track Log - Related Links

Times and Time Zones

All times are in EDT time to prevent confusion due to time zone crossing. See the SWA419 flight status page for this flight to view local times or setup timezone preferences in your user account.


Time Position Orientation Groundspeed Altitude Reporting Facility
EDT Latitude Longitude Course Direction KTS MPH feet Rate Location/Type
Thu 10:29:11 PM 39.8500 -104.7500 288° West 171 197 7,000  Level Denver TRACON
Thu 10:30:11 PM 39.8667 -104.8167 288° West 236 272 8,700 2,016 Climbing Denver TRACON
Thu 10:31:16 PM 39.8867 -104.9250 284° West 285 328 11,200 3,000 Climbing Denver Center
Thu 10:32:17 PM 39.8825 -105.0497 268° West 318 366 15,000 3,268 Climbing Denver Center
Thu 10:33:19 PM 39.8792 -105.1739 268° West 345 397 17,900 2,878 Climbing Denver Center
Thu 10:34:20 PM 39.8747 -105.3047 268° West 362 417 20,900 2,829 Climbing Denver Center
Thu 10:35:22 PM 39.8675 -105.4531 266° West 383 441 23,700 2,419 Climbing Denver Center
Thu 10:36:24 PM 39.8647 -105.5892 269° West 387 445 25,900 2,390 Climbing Denver Center
Thu 10:37:25 PM 39.8583 -105.7361 267° West 399 459 28,600 2,000 Climbing Denver Center
Thu 10:38:27 PM 39.8450 -105.8819 263° West 399 459 30,000 1,306 Climbing Denver Center
Thu 10:39:29 PM 39.8297 -106.0436 263° West 445 512 31,300 1,756 Climbing Denver Center
Thu 10:40:30 PM 39.8150 -106.2042 263° West 445 512 33,600 2,098 Climbing Denver Center
Thu 10:41:32 PM 39.7994 -106.3856 264° West 432 497 35,600 1,161 Climbing Denver Center
Thu 10:42:34 PM 39.7889 -106.5269 264° West 433 498 36,000 195 Climbing Denver Center
Thu 10:43:35 PM 39.7722 -106.6828 262° West 436 502 36,000  Level Denver Center
Thu 10:44:37 PM 39.7550 -106.8364 262° West 434 499 36,000  Level Denver Center
Thu 10:45:38 PM 39.7375 -106.9906 262° West 436 502 36,000  Level Denver Center
Thu 10:46:40 PM 39.7169 -107.1758 262° West 435 501 36,000  Level Denver Center
Thu 10:47:42 PM 39.6994 -107.3264 261° West 432 497 36,000  Level Denver Center
Thu 10:48:43 PM 39.6792 -107.4981 261° West 431 496 36,000  Level Denver Center
Thu 10:49:45 PM 39.6636 -107.6442 262° West 428 493 36,000  Level Denver Center
Thu 10:50:46 PM 39.6458 -107.7925 261° West 433 498 36,000  Level Denver Center
Thu 10:51:48 PM 39.6231 -107.9669 260° West 441 507 36,000  Level Denver Center
Thu 10:52:50 PM 39.6061 -108.1150 262° West 436 502 36,000  Level Denver Center
Thu 10:53:51 PM 39.5839 -108.2917 261° West 441 507 36,000  Level Denver Center
Thu 10:54:53 PM 39.5667 -108.4403 261° West 433 498 36,000  Level Denver Center
Thu 10:55:54 PM 39.5478 -108.5900 261° West 435 501 36,000  Level Denver Center
Thu 10:56:56 PM 39.5250 -108.7681 261° West 438 504 36,000  Level Denver Center
Thu 10:57:58 PM 39.5047 -108.9217 260° West 445 512 36,000  Level Denver Center
Thu 10:58:59 PM 39.4864 -109.0708 261° West 438 504 36,000  Level Denver Center
Thu 11:00:01 PM 39.4631 -109.2456 260° West 440 506 36,000  Level Denver Center
Thu 11:01:03 PM 39.4436 -109.3967 261° West 447 514 36,000  Level Denver Center
Thu 11:02:04 PM 39.4194 -109.5722 260° West 444 511 36,000  Level Denver Center
Thu 11:02:59 PM 39.4033 -109.6983 261° West 445 512 36,000  Level Salt Lake Center
Thu 11:04:07 PM 39.3789 -109.8739 260° West 444 511 36,000  Level Denver Center
Thu 11:05:02 PM 39.3586 -110.0231 260° West 440 506 36,000  Level Salt Lake Center
Thu 11:06:04 PM 39.3364 -110.1958 261° West 437 503 36,000  Level Salt Lake Center
Thu 11:07:06 PM 39.3169 -110.3414 260° West 430 495 36,000  Level Salt Lake Center
Thu 11:08:14 PM 39.2922 -110.5097 259° West 426 490 36,000  Level Denver Center
Thu 11:09:15 PM 39.2711 -110.6781 261° West 426 490 36,000  Level Denver Center
Thu 11:10:11 PM 39.2542 -110.7975 260° West 424 488 36,000  Level Salt Lake Center
Thu 11:11:12 PM 39.2278 -110.9628 258° West 423 487 36,000  Level Salt Lake Center
Thu 11:12:14 PM 39.2086 -111.1083 260° West 429 494 36,000  Level Salt Lake Center
Thu 11:13:15 PM 39.1875 -111.2519 259° West 426 490 36,000  Level Salt Lake Center
Thu 11:14:17 PM 39.1675 -111.4094 261° West 429 494 36,000  Level Salt Lake Center
Thu 11:15:18 PM 39.1444 -111.5550 259° West 419 482 36,000  Level Salt Lake Center
Thu 11:16:20 PM 39.1225 -111.7022 259° West 420 483 36,000  Level Salt Lake Center
Thu 11:17:21 PM 39.0964 -111.8825 259° West 428 493 36,000  Level Salt Lake Center
Thu 11:18:23 PM 39.0739 -112.0314 259° West 427 491 36,000  Level Salt Lake Center
Thu 11:19:25 PM 39.0500 -112.1797 258° West 426 490 36,000  Level Salt Lake Center
Thu 11:20:26 PM 39.0278 -112.3286 259° West 427 491 36,000  Level Salt Lake Center
Thu 11:21:28 PM 39.0050 -112.4772 259° West 426 490 36,000  Level Salt Lake Center
Thu 11:22:29 PM 38.9814 -112.6247 258° West 426 490 36,000  Level Salt Lake Center
Thu 11:23:31 PM 38.9572 -112.7728 258° West 426 490 36,000  Level Salt Lake Center
Thu 11:24:32 PM 38.9300 -112.9519 259° West 428 493 36,000  Level Salt Lake Center
Thu 11:25:34 PM 38.9056 -113.1011 258° West 428 493 36,000  Level Salt Lake Center
Thu 11:26:35 PM 38.8817 -113.2497 258° West 428 493 36,000  Level Salt Lake Center
Thu 11:27:37 PM 38.8569 -113.3978 258° West 428 493 36,000  Level Salt Lake Center
Thu 11:28:38 PM 38.8322 -113.5458 258° West 427 491 36,000  Level Salt Lake Center
Thu 11:29:39 PM 38.8075 -113.6933 258° West 427 491 36,000  Level Salt Lake Center
Thu 11:30:41 PM 38.7825 -113.8403 258° West 426 490 36,000  Level Salt Lake Center
Thu 11:31:42 PM 38.7533 -114.0181 258° West 427 491 36,000  Level Salt Lake Center
Thu 11:32:44 PM 38.7281 -114.1669 258° West 429 494 36,000  Level Salt Lake Center
Thu 11:33:45 PM 38.7022 -114.3150 257° West 429 494 36,000  Level Salt Lake Center
Thu 11:34:46 PM 38.6767 -114.4642 258° West 431 496 36,000  Level Salt Lake Center
Thu 11:35:48 PM 38.6506 -114.6100 257° West 425 489 36,000  Level Salt Lake Center
Thu 11:36:49 PM 38.6233 -114.7592 257° West 431 496 36,000  Level Salt Lake Center
Thu 11:37:51 PM 38.5964 -114.9092 257° West 434 499 36,000  Level Salt Lake Center
Thu 11:38:52 PM 38.5697 -115.0608 257° West 438 504 36,000  Level Salt Lake Center
Thu 11:39:53 PM 38.5361 -115.2414 257° West 438 504 36,000  Level Salt Lake Center
Thu 11:40:55 PM 38.5131 -115.3722 257° West 440 506 36,000  Level Salt Lake Center
Thu 11:41:56 PM 38.4853 -115.5247 257° West 441 507 36,000  Level Salt Lake Center
Thu 11:42:57 PM 38.4508 -115.7053 256° West 437 503 36,000  Level Salt Lake Center
Thu 11:43:59 PM 38.4231 -115.8561 257° West 437 503 36,000  Level Salt Lake Center
Thu 11:45:00 PM 38.3950 -116.0056 257° West 434 499 36,000  Level Salt Lake Center
Thu 11:46:02 PM 38.3667 -116.1547 256° West 433 498 36,000  Level Salt Lake Center
Thu 11:47:03 PM 38.3386 -116.3022 256° West 429 494 36,000  Level Salt Lake Center
Thu 11:47:39 PM 38.3211 -116.3900 256° West 427 491 36,000  Level Oakland Center
Thu 11:48:40 PM 38.2881 -116.5342 254° West 426 490 36,000  Level Oakland Center
Thu 11:49:41 PM 38.2558 -116.6786 254° West 425 489 36,000  Level Oakland Center
Thu 11:50:42 PM 38.2225 -116.8236 254° West 425 489 36,000  Level Oakland Center
Thu 11:51:08 PM 38.2089 -116.8814 253° West 425 489 36,000  Level Salt Lake Center
Thu 11:52:09 PM 38.1678 -117.0244 250° West 434 499 36,000  Level Salt Lake Center
Thu 11:53:11 PM 38.1058 -117.1653 241° Southwest 435 501 36,000  Level Salt Lake Center
Thu 11:53:45 PM 38.0678 -117.2511 241° Southwest 450 518 36,000  Level Oakland Center
Thu 11:54:46 PM 38.0100 -117.3878 242° Southwest 438 504 36,000  Level Oakland Center
Thu 11:55:47 PM 37.9511 -117.5233 241° Southwest 438 504 36,000  Level Oakland Center
Thu 11:56:48 PM 37.8928 -117.6578 241° Southwest 438 504 36,000  Level Oakland Center
Thu 11:57:49 PM 37.8331 -117.7928 241° Southwest 441 507 36,000 -344 Level Oakland Center
Thu 11:58:50 PM 37.7739 -117.9278 241° Southwest 441 507 35,300 -787 Descending Oakland Center
Thu 11:59:51 PM 37.7139 -118.0633 241° Southwest 440 506 34,400 -1,033 Descending Oakland Center
Fri 12:00:52 AM 37.6414 -118.2272 241° Southwest 443 510 33,200 -1,131 Descending Oakland Center
Fri 12:01:53 AM 37.5825 -118.3608 241° Southwest 436 502 32,100 -984 Descending Oakland Center
Fri 12:02:54 AM 37.5233 -118.4900 240° Southwest 427 491 31,200 -934 Descending Oakland Center
Fri 12:03:55 AM 37.4636 -118.6208 240° Southwest 431 496 30,200 -590 Descending Oakland Center
Fri 12:04:56 AM 37.4047 -118.7503 240° Southwest 427 491 30,000 -98 Descending Oakland Center
Fri 12:05:57 AM 37.3775 -118.8919 256° West 414 476 30,000  Level Oakland Center
Fri 12:06:58 AM 37.3650 -119.0319 264° West 406 467 30,000 -49 Level Oakland Center
Fri 12:07:59 AM 37.3514 -119.1747 263° West 427 491 29,900 -541 Descending Oakland Center
Fri 12:09:00 AM 37.3372 -119.3164 263° West 405 466 28,900 -984 Descending Oakland Center
Fri 12:10:01 AM 37.3236 -119.4556 263° West 403 464 27,900 -885 Descending Oakland Center
Fri 12:11:02 AM 37.3078 -119.5872 261° West 384 442 27,100 -885 Descending Oakland Center
Fri 12:12:03 AM 37.2942 -119.7178 263° West 380 437 26,100 -1,082 Descending Oakland Center
Fri 12:13:04 AM 37.2764 -119.8675 262° West 375 432 24,900 -1,082 Descending Oakland Center
Fri 12:14:05 AM 37.2636 -119.9956 263° West 370 426 23,900 -1,377 Descending Oakland Center
Fri 12:15:06 AM 37.2486 -120.1178 261° West 356 410 22,100 -1,820 Descending Oakland Center
Fri 12:16:07 AM 37.2353 -120.2400 262° West 355 409 20,200 -1,770 Descending Oakland Center
Fri 12:17:08 AM 37.2228 -120.3550 262° West 338 389 18,500 -1,660 Descending Oakland Center
Fri 12:17:41 AM 37.2167 -120.4167 263° West 342 394 17,600 -1,806 Descending Northern Cal TRACON
Fri 12:18:41 AM 37.2000 -120.5333 260° West 376 433 15,700 -1,850 Descending Northern Cal TRACON
Fri 12:19:41 AM 37.1667 -120.6333 247° West 324 373 13,900 -1,800 Descending Northern Cal TRACON
Fri 12:20:41 AM 37.1500 -120.7500 260° West 322 371 12,100 -950 Descending Northern Cal TRACON
Fri 12:21:41 AM 37.1167 -120.8500 247° West 315 362 12,000 -130 Descending Northern Cal TRACON
Fri 12:22:13 AM 37.1150 -120.8972 267° West 299 344 11,900 -65 Descending Oakland Center
Fri 12:23:14 AM 37.1044 -121.0061 263° West 314 361 11,900 -639 Level Oakland Center
Fri 12:24:15 AM 37.0933 -121.1125 263° West 311 358 10,600 -934 Descending Oakland Center
Fri 12:25:16 AM 37.0819 -121.2158 262° West 293 337 10,000 -639 Descending Oakland Center
Fri 12:26:17 AM 37.0731 -121.3122 263° West 283 326 9,300 -1,082 Descending Oakland Center
Fri 12:27:18 AM 37.0825 -121.4081 277° West 289 333 7,800 -1,623 Descending Oakland Center
Fri 12:28:19 AM 37.1100 -121.5064 289° West 263 303 6,000 -1,377 Descending Oakland Center
Fri 12:29:20 AM 37.1292 -121.5792 288° West 262 302 5,000 -492 Descending Oakland Center
Fri 12:30:21 AM 37.1483 -121.6619 286° West 253 291 5,000 -397 Level Oakland Center
Fri 12:31:21 AM 37.1886 -121.7444 302° West 248 285 4,200 -942 Descending Oakland Center
Fri 12:32:22 AM 37.2356 -121.7928 321° Northwest 230 265 3,100 -1,082 Descending Oakland Center
Fri 12:33:23 AM 37.2772 -121.8381 319° Northwest 213 245 2,000 -984 Descending Oakland Center
Fri 12:34:24 AM 37.3128 -121.8750 320° Northwest 188 216 1,100 -738 Descending Oakland Center
Fri 12:35:25 AM 37.3386 -121.9050 317° Northwest 153 176 500 14,213 Descending Oakland Center
Fri 12:36:26 AM 37.3653 -121.9333 320° Northwest 135 155 30,000 29,016 Climbing Oakland Center
Fri 12:38:00 AM 37.3627 -121.9291 North  Level Estimated

Login

Don't have an account? Register now (free) for customized features, flight alerts, and more!